createdAt,value
2023-01-17T05:19:31.833Z,97899.44
2023-01-17T05:22:47.405Z,97911.09
2023-01-17T05:26:01.426Z,97894.44
2023-01-17T05:29:15.416Z,97893.16
2023-01-17T05:32:29.380Z,97896.97
2023-01-17T05:35:44.696Z,97898.00
2023-01-17T05:38:58.742Z,97909.22
2023-01-17T05:42:12.726Z,97905.06
2023-01-17T05:45:29.133Z,97918.88
2023-01-17T05:48:43.091Z,97933.00
2023-01-17T05:51:58.831Z,97931.00
2023-01-17T05:55:12.833Z,97935.97
2023-01-17T05:58:26.391Z,97959.06
2023-01-17T06:01:40.270Z,97955.97
2023-01-17T06:04:54.286Z,97958.09
2023-01-17T06:08:09.634Z,97954.78
2023-01-17T06:11:23.616Z,97953.97
2023-01-17T06:14:37.539Z,97959.97
2023-01-17T06:17:51.151Z,97969.62
2023-01-17T06:21:05.025Z,97970.47
2023-01-17T06:24:20.010Z,97973.84
2023-01-17T06:27:33.870Z,97991.81
2023-01-17T06:30:47.434Z,97993.16
2023-01-17T06:34:03.502Z,97999.69
2023-01-17T06:37:18.266Z,98001.00
2023-01-17T06:40:33.784Z,98005.34
2023-01-17T06:43:47.674Z,98013.22
2023-01-17T06:47:01.318Z,98013.38
2023-01-17T06:50:15.864Z,98014.88
2023-01-17T06:53:29.835Z,98019.87
2023-01-17T06:56:45.208Z,98018.59
2023-01-17T06:59:59.147Z,98025.16
2023-01-17T07:03:19.169Z,98030.84
2023-01-17T07:06:33.121Z,98036.00
2023-01-17T07:09:46.694Z,98049.50
2023-01-17T07:13:02.015Z,98035.53
2023-01-17T07:16:16.047Z,98044.34
2023-01-17T07:19:30.037Z,98050.47
2023-01-17T07:22:46.193Z,98052.28
2023-01-17T07:26:01.778Z,98057.72
2023-01-17T07:29:17.120Z,98066.50
2023-01-17T07:32:31.093Z,98059.50
2023-01-17T07:35:44.657Z,98068.56
2023-01-17T07:38:58.707Z,98075.38
2023-01-17T07:42:12.702Z,98082.97
2023-01-17T07:45:27.729Z,98094.56
2023-01-17T07:48:41.638Z,98098.22
2023-01-17T07:51:55.689Z,98100.44
2023-01-17T07:55:10.829Z,98129.94
2023-01-17T07:58:24.847Z,98118.22
2023-01-17T08:01:40.294Z,98132.56
2023-01-17T08:04:54.672Z,98127.59
2023-01-17T08:08:08.654Z,98124.22
2023-01-17T08:11:22.621Z,98138.41
2023-01-17T08:14:36.601Z,98131.75
2023-01-17T08:17:53.320Z,98141.06
2023-01-17T08:21:12.313Z,98127.03
2023-01-17T08:24:26.205Z,98124.03
2023-01-17T08:27:39.837Z,98129.31
2023-01-17T08:30:53.639Z,98151.91
2023-01-17T08:34:08.666Z,98164.34
2023-01-17T08:37:22.541Z,98166.63
2023-01-17T08:40:36.105Z,98173.81
2023-01-17T08:43:50.084Z,98177.03
2023-01-17T08:47:04.003Z,98174.84
2023-01-17T08:50:21.444Z,98175.69
2023-01-17T08:53:35.343Z,98186.78
2023-01-17T08:56:48.945Z,98181.03
2023-01-17T09:00:02.821Z,98204.94
2023-01-17T09:03:18.001Z,98198.00
2023-01-17T09:06:33.393Z,98202.22
2023-01-17T09:09:47.696Z,98197.88
2023-01-17T09:13:01.570Z,98208.63
2023-01-17T09:16:15.313Z,98221.06
2023-01-17T09:19:29.256Z,98216.25
2023-01-17T09:22:46.064Z,98214.94
2023-01-17T09:26:00.900Z,98217.34
2023-01-17T09:29:19.037Z,98224.66
2023-01-17T09:32:38.658Z,98228.97
2023-01-17T09:35:52.646Z,98238.13
2023-01-17T09:39:08.356Z,98229.19
2023-01-17T09:42:23.771Z,98236.69
2023-01-17T09:45:37.834Z,98238.94
2023-01-17T09:48:53.389Z,98233.50
2023-01-17T09:52:07.527Z,98231.59
2023-01-17T09:55:23.401Z,98241.31
2023-01-17T09:58:41.407Z,98244.16
2023-01-17T10:01:59.038Z,98240.41
2023-01-17T10:05:25.942Z,98247.03
2023-01-17T10:08:58.964Z,98239.59
2023-01-17T10:12:22.412Z,98249.31
2023-01-17T10:15:43.633Z,98249.84
2023-01-17T10:19:25.160Z,98243.19
2023-01-17T10:22:51.367Z,98247.84
2023-01-17T10:26:06.956Z,98242.69
2023-01-17T10:29:22.474Z,98224.19
2023-01-17T10:32:36.506Z,98225.94
2023-01-17T10:35:55.000Z,98231.00
2023-01-17T10:39:15.328Z,98237.53
2023-01-17T10:42:33.292Z,98243.03
2023-01-17T10:45:52.185Z,98231.97
2023-01-17T10:49:06.248Z,98234.28
2023-01-17T10:52:24.264Z,98222.31
2023-01-17T10:55:40.262Z,98216.63
2023-01-17T10:58:58.795Z,98228.22
2023-01-17T11:02:20.169Z,98224.66
2023-01-17T11:05:34.774Z,98226.47
2023-01-17T11:08:53.726Z,98205.19
2023-01-17T11:12:12.521Z,98205.69
2023-01-17T11:15:26.596Z,98186.34
2023-01-17T11:18:41.991Z,98195.13
2023-01-17T11:21:58.775Z,98181.84
2023-01-17T11:25:22.171Z,98178.84
2023-01-17T11:28:36.602Z,98186.44
2023-01-17T11:31:58.297Z,98168.84
2023-01-17T11:35:20.483Z,98170.06
2023-01-17T11:38:35.369Z,98175.84
2023-01-17T11:41:53.655Z,98176.44
2023-01-17T11:45:27.576Z,98181.81
2023-01-17T11:48:43.116Z,98173.63
2023-01-17T11:51:58.389Z,98168.25
2023-01-17T11:55:16.276Z,98181.94
2023-01-17T11:58:30.422Z,98190.38
2023-01-17T12:01:45.966Z,98193.91
2023-01-17T12:05:05.039Z,98183.81
2023-01-17T12:08:28.249Z,98184.69
2023-01-17T12:12:08.910Z,98182.16
2023-01-17T12:15:31.142Z,98184.97
2023-01-17T12:18:47.047Z,98187.13
2023-01-17T12:22:07.909Z,98183.25
2023-01-17T12:25:34.195Z,98185.22
2023-01-17T12:29:26.054Z,98182.75
2023-01-17T12:32:51.742Z,98177.09
2023-01-17T12:36:10.491Z,98170.66
2023-01-17T12:39:27.662Z,98172.25
2023-01-17T12:42:45.512Z,98178.59
2023-01-17T12:45:59.671Z,98190.50
2023-01-17T12:49:21.656Z,98186.00
2023-01-17T12:52:42.621Z,98192.97
2023-01-17T12:56:01.049Z,98186.09
2023-01-17T12:59:17.655Z,98192.47
2023-01-17T13:02:36.119Z,98182.88
2023-01-17T13:05:51.440Z,98176.91
2023-01-17T13:09:06.152Z,98170.56
2023-01-17T13:12:21.207Z,98169.63
2023-01-17T13:15:39.597Z,98179.37
2023-01-17T13:18:54.787Z,98186.56
2023-01-17T13:22:10.142Z,98193.84
2023-01-17T13:25:32.017Z,98196.44
2023-01-17T13:28:47.501Z,98209.06
2023-01-17T13:32:07.756Z,98211.84
2023-01-17T13:35:23.837Z,98202.06
2023-01-17T13:38:57.691Z,98202.31
2023-01-17T13:42:14.328Z,98181.19
2023-01-17T13:45:29.499Z,98172.22
2023-01-17T13:48:44.948Z,98168.41
2023-01-17T13:52:10.874Z,98162.38
2023-01-17T13:55:44.652Z,98155.69
2023-01-17T13:59:03.392Z,98151.16
2023-01-17T14:02:37.976Z,98150.53
2023-01-17T14:05:58.369Z,98137.56
2023-01-17T14:09:26.893Z,98128.00
2023-01-17T14:12:40.843Z,98119.00
2023-01-17T14:15:54.825Z,98098.03
2023-01-17T14:19:26.563Z,98077.59
2023-01-17T14:22:42.984Z,98075.09
2023-01-17T14:25:56.978Z,98068.69
2023-01-17T14:29:50.945Z,98056.38
2023-01-17T14:33:37.610Z,98058.34
2023-01-17T14:36:53.679Z,98050.37
2023-01-17T14:40:20.458Z,98057.53
2023-01-17T14:43:35.534Z,98053.28
2023-01-17T14:46:49.745Z,98050.19
2023-01-17T14:50:16.441Z,98036.75
2023-01-17T14:53:30.728Z,98035.97
2023-01-17T14:56:48.054Z,98034.44
2023-01-17T15:00:19.236Z,98028.97
2023-01-17T15:03:34.946Z,98026.59
2023-01-17T15:06:48.876Z,98026.63
2023-01-17T15:10:03.882Z,98027.87
2023-01-17T15:13:26.022Z,98029.09
2023-01-17T15:16:46.612Z,98032.16
2023-01-17T15:20:01.620Z,98032.78
2023-01-17T15:23:16.068Z,98035.69
2023-01-17T15:26:31.075Z,98040.81
2023-01-17T15:29:46.715Z,98037.50
2023-01-17T15:33:00.623Z,98027.78
2023-01-17T15:36:17.803Z,98016.34
2023-01-17T15:39:32.234Z,98014.69
2023-01-17T15:42:46.925Z,98013.50
2023-01-17T15:46:02.581Z,98003.03
2023-01-17T15:49:18.167Z,97992.62
2023-01-17T15:52:32.185Z,97991.50
2023-01-17T15:55:48.061Z,97988.56
2023-01-17T15:59:21.399Z,97983.03
2023-01-17T16:02:42.754Z,97970.91
2023-01-17T16:05:57.946Z,97975.44
2023-01-17T16:09:20.681Z,97976.09
2023-01-17T16:12:34.604Z,97973.37
2023-01-17T16:15:48.163Z,97961.66
